createdAt,value
2018-11-25T00:00:32.464Z,15.70
2018-11-25T00:03:01.376Z,25.33
2018-11-25T00:05:29.733Z,20.63
2018-11-25T00:07:58.173Z,16.60
2018-11-25T00:10:26.666Z,14.50
2018-11-25T00:12:55.741Z,14.80
2018-11-25T00:15:24.206Z,18.23
2018-11-25T00:17:52.653Z,17.00
2018-11-25T00:20:21.085Z,17.67
2018-11-25T00:22:49.482Z,17.90
2018-11-25T00:25:18.403Z,17.53
2018-11-25T00:27:46.886Z,19.63
2018-11-25T00:30:16.048Z,20.67
2018-11-25T00:32:44.598Z,17.33
2018-11-25T00:35:14.659Z,15.93
2018-11-25T00:37:48.130Z,16.40
2018-11-25T00:40:12.988Z,17.80
2018-11-25T00:42:41.478Z,17.97
2018-11-25T00:45:11.414Z,17.93
2018-11-25T00:47:39.858Z,19.20
2018-11-25T00:50:10.982Z,18.00
2018-11-25T00:52:39.648Z,16.63
2018-11-25T00:55:17.949Z,15.37
2018-11-25T00:57:46.408Z,18.20
2018-11-25T01:00:16.088Z,15.90
2018-11-25T01:02:44.704Z,19.63
2018-11-25T01:05:13.406Z,19.23
2018-11-25T01:07:41.786Z,22.60
2018-11-25T01:10:11.524Z,20.87
2018-11-25T01:12:39.937Z,18.07
2018-11-25T01:15:14.154Z,22.00
2018-11-25T01:17:42.789Z,22.53
2018-11-25T01:20:13.480Z,20.30
2018-11-25T01:22:41.990Z,22.97
2018-11-25T01:25:11.186Z,23.33
2018-11-25T01:27:39.648Z,24.37
2018-11-25T01:30:10.802Z,18.27
2018-11-25T01:32:39.271Z,17.80
2018-11-25T01:35:09.111Z,17.07
2018-11-25T01:37:37.577Z,15.67
2018-11-25T01:40:10.336Z,23.00
2018-11-25T01:42:38.826Z,20.23
2018-11-25T01:45:09.041Z,14.47
2018-11-25T01:47:37.541Z,17.20
2018-11-25T01:50:07.526Z,21.37
2018-11-25T01:52:36.069Z,20.80
2018-11-25T01:55:04.613Z,20.63
2018-11-25T01:57:33.052Z,15.77
2018-11-25T02:00:01.536Z,14.93
2018-11-25T02:02:29.937Z,14.57
2018-11-25T02:04:58.404Z,20.37
2018-11-25T02:07:26.788Z,20.00
2018-11-25T02:09:55.358Z,20.80
2018-11-25T02:12:23.721Z,19.33
2018-11-25T02:14:52.241Z,19.77
2018-11-25T02:17:20.675Z,19.23
2018-11-25T02:19:49.240Z,16.23
2018-11-25T02:22:17.629Z,21.60
2018-11-25T02:24:46.149Z,19.57
2018-11-25T02:27:14.793Z,21.47
2018-11-25T02:29:43.426Z,17.07
2018-11-25T02:32:11.902Z,18.53
2018-11-25T02:34:40.381Z,17.60
2018-11-25T02:37:08.812Z,22.57
2018-11-25T02:39:37.189Z,18.20
2018-11-25T02:42:05.758Z,18.17
2018-11-25T02:44:34.230Z,21.80
2018-11-25T02:47:02.630Z,20.20
2018-11-25T02:49:31.229Z,20.70
2018-11-25T02:51:59.848Z,21.07
2018-11-25T02:54:28.335Z,18.27
2018-11-25T02:56:56.771Z,20.03
2018-11-25T02:59:25.316Z,17.63
2018-11-25T03:01:53.657Z,17.73
2018-11-25T03:04:22.142Z,21.57
2018-11-25T03:06:50.524Z,19.90
2018-11-25T03:09:19.078Z,17.77
2018-11-25T03:11:47.490Z,17.83
2018-11-25T03:14:16.036Z,16.60
2018-11-25T03:16:44.587Z,21.87
2018-11-25T03:19:13.146Z,20.03
2018-11-25T03:21:41.626Z,23.03
2018-11-25T03:24:10.163Z,14.97
2018-11-25T03:26:38.655Z,20.53
2018-11-25T03:29:07.229Z,17.83
2018-11-25T03:31:35.652Z,17.70
2018-11-25T03:34:04.122Z,19.80
2018-11-25T03:36:32.493Z,21.50
2018-11-25T03:39:01.011Z,16.17
2018-11-25T03:41:29.533Z,18.07
2018-11-25T03:43:57.954Z,18.63
2018-11-25T03:46:26.340Z,18.03
2018-11-25T03:48:54.834Z,18.20
2018-11-25T03:51:23.437Z,20.83
2018-11-25T03:53:51.870Z,19.70
2018-11-25T03:56:20.319Z,19.70
2018-11-25T03:58:48.862Z,17.33
2018-11-25T04:01:17.301Z,17.90
2018-11-25T04:03:46.406Z,15.87
2018-11-25T04:06:14.853Z,18.13
2018-11-25T04:08:43.357Z,21.17
2018-11-25T04:11:11.826Z,17.80
2018-11-25T04:13:40.413Z,18.73
2018-11-25T04:16:08.797Z,17.20
2018-11-25T04:18:37.446Z,24.00
2018-11-25T04:21:06.191Z,20.00
2018-11-25T04:23:34.614Z,15.47
2018-11-25T04:26:03.079Z,12.47
2018-11-25T04:28:31.578Z,21.60
2018-11-25T04:30:59.966Z,16.53
2018-11-25T04:33:28.510Z,23.37
2018-11-25T04:35:56.945Z,16.77
2018-11-25T04:38:25.513Z,26.93
2018-11-25T04:40:54.023Z,21.07
2018-11-25T04:43:22.566Z,29.07
2018-11-25T04:45:51.725Z,25.50
2018-11-25T04:48:20.337Z,24.03
2018-11-25T04:50:48.806Z,21.37
2018-11-25T04:53:17.241Z,15.00
2018-11-25T04:55:45.661Z,16.40
2018-11-25T04:58:14.134Z,22.07
2018-11-25T05:00:42.502Z,26.73
2018-11-25T05:03:11.027Z,21.67
2018-11-25T05:05:39.486Z,22.77
2018-11-25T05:08:08.013Z,16.17
2018-11-25T05:10:36.465Z,25.57
2018-11-25T05:13:05.181Z,26.40
2018-11-25T05:15:33.573Z,29.87
2018-11-25T05:18:02.077Z,25.73
2018-11-25T05:20:30.517Z,26.27
2018-11-25T05:22:59.000Z,24.37
2018-11-25T05:25:27.507Z,21.57
2018-11-25T05:27:55.945Z,27.23
2018-11-25T05:30:24.453Z,27.77
2018-11-25T05:32:52.961Z,27.30
2018-11-25T05:35:21.790Z,30.43
2018-11-25T05:37:50.981Z,26.93
2018-11-25T05:40:19.388Z,20.67
2018-11-25T05:42:47.939Z,27.83
2018-11-25T05:45:18.222Z,29.50
2018-11-25T05:47:46.681Z,27.40
2018-11-25T05:50:18.010Z,27.37
2018-11-25T05:52:46.506Z,28.60
2018-11-25T05:55:15.067Z,22.27
2018-11-25T05:57:43.465Z,27.37
2018-11-25T06:00:26.634Z,23.90
2018-11-25T06:02:55.025Z,24.57
2018-11-25T06:05:23.453Z,26.27
2018-11-25T06:07:51.885Z,24.73
2018-11-25T06:10:20.346Z,25.23
2018-11-25T06:12:48.833Z,19.47
2018-11-25T06:15:17.195Z,25.40
2018-11-25T06:17:45.630Z,19.17
2018-11-25T06:20:14.984Z,26.73
2018-11-25T06:22:43.473Z,20.47
2018-11-25T06:25:15.787Z,20.73
2018-11-25T06:27:44.223Z,24.43
2018-11-25T06:30:15.673Z,21.07
2018-11-25T06:32:44.147Z,27.60
2018-11-25T06:35:13.581Z,24.67
2018-11-25T06:37:42.096Z,24.23
2018-11-25T06:40:13.473Z,18.57
2018-11-25T06:42:41.937Z,22.40
2018-11-25T06:45:12.942Z,19.03
2018-11-25T06:47:41.521Z,18.53
2018-11-25T06:50:12.710Z,17.53
2018-11-25T06:52:41.128Z,23.53
2018-11-25T06:55:10.929Z,19.03
2018-11-25T06:57:39.437Z,16.10
2018-11-25T07:00:11.754Z,21.03
2018-11-25T07:02:40.283Z,21.03
2018-11-25T07:05:09.003Z,20.00
2018-11-25T07:07:37.405Z,17.73
2018-11-25T07:10:09.582Z,22.97
2018-11-25T07:12:38.077Z,20.83
2018-11-25T07:15:09.254Z,24.00
2018-11-25T07:17:37.626Z,17.50
2018-11-25T07:20:07.233Z,20.03
2018-11-25T07:22:35.675Z,22.97
2018-11-25T07:25:04.173Z,22.80
2018-11-25T07:27:32.612Z,19.87
2018-11-25T07:30:07.601Z,22.17
2018-11-25T07:32:29.593Z,23.40
2018-11-25T07:34:58.049Z,22.03
2018-11-25T07:37:26.459Z,29.37
2018-11-25T07:39:54.949Z,20.13
2018-11-25T07:42:23.301Z,21.37
2018-11-25T07:44:51.755Z,21.93
2018-11-25T07:47:20.176Z,23.73
2018-11-25T07:49:48.576Z,19.80
2018-11-25T07:52:17.060Z,17.67
2018-11-25T07:54:45.622Z,21.80
2018-11-25T07:57:14.421Z,19.13
2018-11-25T07:59:42.946Z,28.80
2018-11-25T08:02:11.434Z,23.67
2018-11-25T08:04:39.912Z,31.47
2018-11-25T08:07:08.513Z,20.67
2018-11-25T08:09:36.916Z,25.20
2018-11-25T08:12:05.361Z,29.37
2018-11-25T08:14:33.788Z,28.97
2018-11-25T08:17:02.177Z,27.30
2018-11-25T08:19:30.630Z,30.90
2018-11-25T08:21:59.121Z,36.47
2018-11-25T08:24:27.601Z,30.43
2018-11-25T08:26:56.237Z,28.40
2018-11-25T08:29:24.700Z,26.33
2018-11-25T08:31:53.152Z,34.13
2018-11-25T08:34:21.652Z,27.17
2018-11-25T08:36:50.339Z,34.27
2018-11-25T08:39:18.778Z,30.10
2018-11-25T08:41:47.169Z,24.27
2018-11-25T08:44:16.178Z,26.97
2018-11-25T08:46:44.738Z,28.93
2018-11-25T08:49:13.194Z,30.80
2018-11-25T08:51:41.700Z,28.47
2018-11-25T08:54:10.208Z,32.00
2018-11-25T08:56:38.767Z,34.70
2018-11-25T08:59:07.222Z,25.80
2018-11-25T09:01:35.645Z,27.40
2018-11-25T09:04:04.046Z,26.83
2018-11-25T09:06:32.574Z,29.07
2018-11-25T09:09:01.149Z,28.20
2018-11-25T09:11:29.632Z,32.47
2018-11-25T09:13:59.221Z,29.40
2018-11-25T09:16:29.154Z,29.73
2018-11-25T09:18:58.153Z,24.90
2018-11-25T09:21:26.604Z,39.20
2018-11-25T09:23:55.119Z,35.43
2018-11-25T09:26:23.590Z,31.43
2018-11-25T09:28:52.356Z,29.03
2018-11-25T09:31:20.607Z,39.93
2018-11-25T09:33:49.169Z,35.73
2018-11-25T09:36:17.577Z,36.23
2018-11-25T09:38:46.410Z,32.93
2018-11-25T09:41:14.938Z,45.52
2018-11-25T09:43:43.521Z,31.20
2018-11-25T09:46:12.138Z,31.37
2018-11-25T09:48:40.578Z,36.30
2018-11-25T09:51:09.085Z,32.83
2018-11-25T09:53:37.601Z,31.70
2018-11-25T09:56:06.679Z,30.97
2018-11-25T09:58:35.272Z,39.83
2018-11-25T10:01:03.874Z,32.80
2018-11-25T10:03:32.510Z,34.00
2018-11-25T10:06:02.131Z,29.50
2018-11-25T10:08:30.620Z,33.90
2018-11-25T10:10:59.121Z,27.70
2018-11-25T10:13:27.595Z,26.33
2018-11-25T10:15:56.178Z,40.83
2018-11-25T10:18:24.625Z,23.53
2018-11-25T10:20:53.241Z,32.57
2018-11-25T10:23:21.733Z,32.20
2018-11-25T10:25:50.221Z,29.30
2018-11-25T10:28:19.533Z,34.93
2018-11-25T10:30:48.041Z,32.03
2018-11-25T10:33:16.546Z,32.53
2018-11-25T10:35:45.079Z,45.73
2018-11-25T10:38:13.705Z,45.33
2018-11-25T10:40:42.139Z,34.70
2018-11-25T10:43:10.603Z,32.27
2018-11-25T10:45:39.039Z,32.40
2018-11-25T10:48:07.596Z,31.60
2018-11-25T10:50:36.015Z,31.83
2018-11-25T10:53:04.456Z,41.97
2018-11-25T10:55:32.883Z,30.10
2018-11-25T10:58:01.433Z,38.20
2018-11-25T11:00:37.197Z,35.30
2018-11-25T11:03:12.298Z,41.53
2018-11-25T11:05:46.179Z,21.77
2018-11-25T11:08:14.804Z,32.77
2018-11-25T11:10:43.382Z,25.07
2018-11-25T11:13:11.839Z,34.47
2018-11-25T11:15:40.222Z,28.17
2018-11-25T11:18:08.786Z,37.23
2018-11-25T11:20:37.244Z,40.40
2018-11-25T11:23:06.094Z,33.60
2018-11-25T11:25:34.561Z,39.00
2018-11-25T11:28:02.982Z,38.13
2018-11-25T11:30:31.387Z,25.57
2018-11-25T11:32:59.869Z,31.87
2018-11-25T11:35:28.277Z,25.03
2018-11-25T11:37:56.720Z,18.97
2018-11-25T11:40:25.196Z,31.53
2018-11-25T11:42:53.769Z,23.80
2018-11-25T11:45:23.116Z,27.43
2018-11-25T11:47:51.653Z,35.77
2018-11-25T11:50:21.310Z,43.87
2018-11-25T11:52:49.746Z,25.97
2018-11-25T11:55:18.610Z,26.03
2018-11-25T11:57:47.741Z,34.87
2018-11-25T12:00:21.725Z,28.50
2018-11-25T12:02:50.358Z,27.80
2018-11-25T12:05:18.849Z,27.80
2018-11-25T12:07:47.222Z,27.47
2018-11-25T12:10:16.361Z,25.93
2018-11-25T12:12:44.899Z,39.83
2018-11-25T12:15:17.660Z,28.40
2018-11-25T12:17:46.115Z,36.73
2018-11-25T12:20:14.767Z,39.37
2018-11-25T12:22:43.322Z,27.27
2018-11-25T12:25:14.908Z,33.83
2018-11-25T12:27:43.457Z,37.60
2018-11-25T12:30:12.855Z,37.67
2018-11-25T12:32:41.667Z,26.73
2018-11-25T12:35:11.167Z,44.63
2018-11-25T12:37:39.761Z,36.23
2018-11-25T12:40:12.419Z,35.83
2018-11-25T12:42:41.292Z,30.93
2018-11-25T12:45:11.743Z,23.23
2018-11-25T12:47:40.169Z,30.03
2018-11-25T12:50:10.195Z,36.83
2018-11-25T12:52:38.695Z,31.80
2018-11-25T12:55:13.711Z,24.17
2018-11-25T12:57:42.082Z,24.57
2018-11-25T13:00:15.937Z,38.47
2018-11-25T13:02:46.005Z,25.33
2018-11-25T13:05:14.477Z,34.23
2018-11-25T13:07:42.936Z,28.67
2018-11-25T13:10:11.476Z,29.40
2018-11-25T13:12:39.973Z,28.23
2018-11-25T13:15:12.926Z,24.63
2018-11-25T13:17:41.474Z,23.30
2018-11-25T13:20:12.962Z,23.37
2018-11-25T13:22:41.449Z,25.93
2018-11-25T13:25:12.105Z,25.67
2018-11-25T13:27:44.414Z,22.07
2018-11-25T13:30:23.962Z,27.43
2018-11-25T13:32:53.611Z,26.63
2018-11-25T13:35:22.201Z,26.90
2018-11-25T13:37:50.684Z,26.80
2018-11-25T13:40:19.190Z,27.63
2018-11-25T13:42:47.785Z,29.83
2018-11-25T13:45:16.291Z,26.43
2018-11-25T13:47:44.990Z,23.87
2018-11-25T13:50:13.931Z,23.47
2018-11-25T13:52:42.439Z,21.83
2018-11-25T13:55:14.069Z,24.73
2018-11-25T13:57:42.945Z,26.00
2018-11-25T14:00:16.562Z,27.50
2018-11-25T14:02:45.076Z,24.50
2018-11-25T14:05:13.569Z,21.50
2018-11-25T14:07:42.012Z,29.57
2018-11-25T14:10:17.628Z,24.20
2018-11-25T14:12:46.147Z,29.00
2018-11-25T14:15:14.621Z,26.10
2018-11-25T14:17:43.064Z,32.77
2018-11-25T14:20:11.495Z,21.20
2018-11-25T14:22:39.989Z,24.17
2018-11-25T14:25:11.018Z,29.00
2018-11-25T14:27:39.462Z,24.27
2018-11-25T14:30:14.827Z,30.30
2018-11-25T14:32:43.339Z,32.67
2018-11-25T14:35:13.344Z,21.93
2018-11-25T14:37:41.824Z,25.60
2018-11-25T14:40:11.745Z,23.50
2018-11-25T14:42:40.169Z,26.13
2018-11-25T14:45:10.222Z,24.20
2018-11-25T14:47:38.614Z,29.20
2018-11-25T14:50:12.410Z,26.57
2018-11-25T14:52:41.361Z,29.53
2018-11-25T14:55:11.908Z,20.67
2018-11-25T14:57:40.776Z,28.00
2018-11-25T15:00:12.745Z,29.43
2018-11-25T15:02:41.441Z,21.20
2018-11-25T15:05:22.217Z,25.50
2018-11-25T15:07:50.702Z,20.90
2018-11-25T15:10:19.256Z,21.70
2018-11-25T15:12:47.657Z,23.07
2018-11-25T15:15:16.985Z,26.97
2018-11-25T15:17:45.663Z,28.63
2018-11-25T15:20:14.226Z,23.90
2018-11-25T15:22:44.405Z,23.80
2018-11-25T15:25:16.331Z,19.93
2018-11-25T15:27:44.773Z,23.07
2018-11-25T15:30:13.274Z,23.60
2018-11-25T15:32:41.913Z,23.37
2018-11-25T15:35:11.639Z,27.33
2018-11-25T15:37:41.709Z,28.10
2018-11-25T15:40:15.278Z,24.13
2018-11-25T15:42:43.743Z,21.33
2018-11-25T15:45:12.282Z,24.80
2018-11-25T15:47:42.577Z,24.07
2018-11-25T15:50:13.895Z,26.17
2018-11-25T15:52:42.429Z,18.77
2018-11-25T15:55:13.419Z,29.37
2018-11-25T15:57:42.029Z,22.30
2018-11-25T16:00:15.800Z,21.27
2018-11-25T16:02:44.308Z,21.10
2018-11-25T16:05:19.453Z,26.23
2018-11-25T16:07:47.933Z,31.23
2018-11-25T16:10:16.460Z,25.70
2018-11-25T16:12:46.281Z,24.87
2018-11-25T16:15:16.026Z,18.17
2018-11-25T16:17:44.456Z,31.23
2018-11-25T16:20:19.047Z,24.70
2018-11-25T16:22:50.709Z,23.00
2018-11-25T16:25:54.955Z,24.33
2018-11-25T16:28:33.068Z,22.13
2018-11-25T16:31:01.508Z,25.03
2018-11-25T16:33:30.038Z,24.67
2018-11-25T16:35:58.469Z,22.63
2018-11-25T16:38:26.962Z,31.63
2018-11-25T16:40:55.522Z,23.67
2018-11-25T16:43:23.967Z,26.03
2018-11-25T16:45:52.569Z,22.73
2018-11-25T16:48:21.033Z,30.07
2018-11-25T16:50:49.476Z,21.40
2018-11-25T16:53:17.893Z,21.77
2018-11-25T16:55:46.367Z,23.73
2018-11-25T16:58:14.950Z,32.17
2018-11-25T17:00:43.354Z,21.63
2018-11-25T17:03:11.836Z,26.73
2018-11-25T17:05:42.201Z,21.70
2018-11-25T17:08:17.464Z,30.90
2018-11-25T17:10:45.932Z,26.20
2018-11-25T17:13:14.365Z,19.27
2018-11-25T17:15:42.899Z,24.30
2018-11-25T17:18:11.361Z,26.27
2018-11-25T17:20:39.802Z,26.20
2018-11-25T17:23:18.585Z,24.57
2018-11-25T17:25:47.307Z,25.03
2018-11-25T17:28:15.778Z,25.30
2018-11-25T17:30:44.201Z,25.67
2018-11-25T17:33:12.617Z,21.53
2018-11-25T17:35:41.210Z,36.03
2018-11-25T17:38:09.738Z,26.53
2018-11-25T17:40:38.889Z,28.07
2018-11-25T17:43:09.678Z,31.40
2018-11-25T17:45:38.479Z,25.07
2018-11-25T17:48:07.107Z,37.67
2018-11-25T17:50:35.645Z,32.40
2018-11-25T17:53:04.121Z,27.47
2018-11-25T17:55:32.917Z,30.63
2018-11-25T17:58:01.403Z,23.07
2018-11-25T18:00:41.370Z,25.67
2018-11-25T18:03:14.584Z,21.47
2018-11-25T18:05:43.023Z,24.20
2018-11-25T18:08:11.425Z,22.33
2018-11-25T18:10:39.893Z,28.15
2018-11-25T18:13:08.374Z,19.13
2018-11-25T18:15:36.838Z,28.87
2018-11-25T18:18:10.861Z,25.17
2018-11-25T18:20:42.780Z,22.10
2018-11-25T18:23:11.208Z,29.47
2018-11-25T18:25:39.686Z,28.80
2018-11-25T18:28:08.181Z,24.60
2018-11-25T18:30:36.706Z,31.07
2018-11-25T18:33:05.119Z,21.10
2018-11-25T18:35:33.602Z,20.90
2018-11-25T18:38:02.176Z,31.77
2018-11-25T18:40:30.555Z,32.93
2018-11-25T18:42:58.952Z,27.30
2018-11-25T18:45:27.352Z,32.37
2018-11-25T18:47:55.831Z,25.13
2018-11-25T18:50:24.310Z,24.70
2018-11-25T18:52:53.924Z,24.03
2018-11-25T18:55:21.215Z,24.90
2018-11-25T18:57:49.628Z,36.97
2018-11-25T19:00:32.855Z,25.80
2018-11-25T19:03:01.349Z,26.00
2018-11-25T19:05:29.793Z,32.63
2018-11-25T19:07:58.159Z,29.20
2018-11-25T19:10:26.668Z,25.13
2018-11-25T19:12:55.327Z,31.30
2018-11-25T19:15:23.985Z,27.23
2018-11-25T19:17:52.413Z,28.43
2018-11-25T19:20:25.130Z,25.53
2018-11-25T19:22:53.749Z,29.07
2018-11-25T19:25:22.218Z,24.23
2018-11-25T19:27:50.750Z,22.43
2018-11-25T19:30:26.125Z,19.90
2018-11-25T19:32:49.257Z,26.77
2018-11-25T19:35:19.128Z,25.73
2018-11-25T19:37:48.796Z,30.63
2018-11-25T19:40:18.594Z,28.80
2018-11-25T19:42:47.022Z,26.57
2018-11-25T19:45:19.833Z,27.95
2018-11-25T19:47:48.385Z,25.93
2018-11-25T19:50:25.285Z,30.17
2018-11-25T19:52:53.730Z,26.00
2018-11-25T19:55:22.107Z,26.93
2018-11-25T19:57:50.612Z,23.43
2018-11-25T20:00:20.659Z,22.23
2018-11-25T20:02:50.586Z,26.07
2018-11-25T20:05:19.097Z,25.73
2018-11-25T20:07:47.514Z,21.60
2018-11-25T20:10:18.958Z,23.97
2018-11-25T20:12:48.558Z,21.57
2018-11-25T20:15:18.092Z,23.50
2018-11-25T20:17:54.134Z,19.77
2018-11-25T20:20:17.962Z,22.83
2018-11-25T20:22:46.495Z,24.80
2018-11-25T20:25:15.406Z,18.83
2018-11-25T20:27:51.393Z,20.10
2018-11-25T20:30:22.165Z,20.63
2018-11-25T20:32:56.221Z,18.33
2018-11-25T20:35:24.737Z,16.17
2018-11-25T20:37:58.850Z,19.93
2018-11-25T20:40:27.306Z,23.43
2018-11-25T20:42:55.710Z,21.77
2018-11-25T20:45:29.684Z,19.77
2018-11-25T20:47:59.258Z,20.17
2018-11-25T20:50:27.645Z,23.10
2018-11-25T20:53:01.538Z,25.40
2018-11-25T20:55:30.076Z,23.23
2018-11-25T20:58:03.037Z,20.27
2018-11-25T21:00:31.856Z,20.47
2018-11-25T21:03:00.416Z,24.10
2018-11-25T21:05:28.885Z,17.60
2018-11-25T21:07:57.339Z,24.80
2018-11-25T21:10:26.248Z,17.37
2018-11-25T21:12:54.899Z,21.07
2018-11-25T21:15:23.426Z,20.90
2018-11-25T21:17:51.933Z,18.03
2018-11-25T21:20:22.296Z,25.50
2018-11-25T21:22:50.764Z,24.83
2018-11-25T21:25:21.366Z,19.10
2018-11-25T21:27:49.843Z,17.17
2018-11-25T21:30:20.483Z,18.47
2018-11-25T21:32:50.113Z,21.83
2018-11-25T21:35:18.607Z,20.70
2018-11-25T21:37:47.044Z,18.77
2018-11-25T21:40:24.288Z,26.77
2018-11-25T21:42:53.020Z,25.87
2018-11-25T21:45:21.922Z,18.03
2018-11-25T21:47:50.495Z,24.10
2018-11-25T21:50:20.247Z,16.67
2018-11-25T21:52:48.678Z,24.83
2018-11-25T21:55:17.861Z,17.47
2018-11-25T21:57:46.242Z,18.93
2018-11-25T22:00:17.651Z,14.20
2018-11-25T22:02:46.160Z,18.93
2018-11-25T22:05:15.047Z,21.83
2018-11-25T22:07:43.469Z,17.70
2018-11-25T22:10:12.913Z,20.50
2018-11-25T22:12:42.124Z,18.50
2018-11-25T22:15:14.578Z,19.47
2018-11-25T22:17:43.219Z,24.87
2018-11-25T22:20:12.598Z,18.87
2018-11-25T22:22:41.052Z,19.77
2018-11-25T22:25:14.832Z,18.03
2018-11-25T22:27:43.359Z,19.07
2018-11-25T22:30:13.705Z,16.60
2018-11-25T22:32:42.224Z,21.17
2018-11-25T22:35:14.984Z,19.47
2018-11-25T22:37:43.534Z,12.73
2018-11-25T22:40:12.826Z,18.40
2018-11-25T22:42:41.961Z,18.67
2018-11-25T22:45:12.683Z,21.73
2018-11-25T22:47:41.457Z,20.90
2018-11-25T22:50:11.847Z,18.70
2018-11-25T22:52:40.329Z,28.50
2018-11-25T22:55:12.289Z,25.40
2018-11-25T22:57:40.748Z,22.97
2018-11-25T23:00:19.962Z,15.30
2018-11-25T23:02:48.409Z,19.60
2018-11-25T23:05:28.212Z,18.37
2018-11-25T23:07:56.637Z,21.30
2018-11-25T23:10:25.088Z,15.47
2018-11-25T23:12:53.574Z,17.83
2018-11-25T23:15:22.147Z,18.00
2018-11-25T23:17:50.766Z,23.97
2018-11-25T23:20:19.240Z,19.27
2018-11-25T23:22:47.715Z,21.37
2018-11-25T23:25:16.221Z,18.63
2018-11-25T23:27:44.665Z,15.80
2018-11-25T23:30:13.068Z,20.27
2018-11-25T23:32:41.477Z,22.93
2018-11-25T23:35:14.978Z,24.30
2018-11-25T23:37:43.405Z,20.93
2018-11-25T23:40:11.869Z,19.33
2018-11-25T23:42:40.381Z,24.53
2018-11-25T23:45:11.358Z,23.23
2018-11-25T23:47:42.069Z,21.40
2018-11-25T23:50:12.497Z,22.10
2018-11-25T23:52:42.347Z,20.93
2018-11-25T23:55:11.951Z,17.47
2018-11-25T23:57:40.401Z,14.53
